Time;durP1;ratioP1;P1;durP2;ratioP2;P2;SDS_P1;SDS_P2;PMS_P1;PMS_P2;Temp;Humidity;BMP_temperature;BMP_pressure;BME280_temperature;BME280_humidity;BME280_pressure;Samples;Min_cycle;Max_cycle;Signal;HPM_P1;HPM_P2
2022/03/05 00:00:17;;;;;;;57.20;25.63;;;0.70;99.90;;;;;;2607536;54;20457;-74
2022/03/05 00:02:43;;;;;;;42.23;23.50;;;0.70;99.90;;;;;;2609987;54;20502;-76
2022/03/05 00:05:10;;;;;;;58.60;26.17;;;0.70;99.90;;;;;;2610239;39;20865;-74
2022/03/05 00:07:36;;;;;;;46.97;25.20;;;0.80;99.90;;;;;;2611395;54;20415;-74
2022/03/05 00:10:02;;;;;;;40.30;22.10;;;0.80;99.90;;;;;;2608971;46;20534;-74
2022/03/05 00:12:28;;;;;;;38.17;23.20;;;0.70;99.90;;;;;;2610894;54;20423;-74
2022/03/05 00:14:54;;;;;;;40.77;22.10;;;0.60;99.90;;;;;;2611169;47;20434;-73
2022/03/05 00:17:20;;;;;;;52.40;23.73;;;0.70;99.90;;;;;;2612373;54;20877;-74
2022/03/05 00:19:45;;;;;;;43.90;22.07;;;0.60;99.90;;;;;;2611138;47;20903;-76
2022/03/05 00:22:11;;;;;;;44.83;25.90;;;0.70;99.90;;;;;;2610641;46;20310;-75
2022/03/05 00:24:37;;;;;;;51.27;22.93;;;0.70;99.90;;;;;;2610592;54;20679;-75
2022/03/05 00:27:04;;;;;;;45.37;22.77;;;0.70;99.90;;;;;;2609034;47;20750;-74
2022/03/05 00:29:30;;;;;;;47.17;23.77;;;0.60;99.90;;;;;;2610427;54;20158;-74
2022/03/05 00:31:56;;;;;;;52.27;23.50;;;0.60;99.90;;;;;;2609826;51;20435;-75
2022/03/05 00:34:22;;;;;;;43.37;23.10;;;0.60;99.90;;;;;;2611116;39;20823;-74
2022/03/05 00:36:47;;;;;;;49.43;24.70;;;0.50;99.90;;;;;;2611871;39;20597;-75
2022/03/05 00:39:13;;;;;;;45.00;22.47;;;0.40;99.90;;;;;;2611121;54;20410;-74
2022/03/05 00:41:39;;;;;;;48.00;23.57;;;0.40;99.90;;;;;;2609290;47;20186;-75
2022/03/05 00:44:05;;;;;;;50.80;26.10;;;0.40;99.90;;;;;;2610179;47;20531;-74
2022/03/05 00:46:31;;;;;;;43.13;24.77;;;0.40;99.90;;;;;;2611714;54;20419;-74
2022/03/05 00:48:57;;;;;;;51.13;25.53;;;0.30;99.90;;;;;;2609059;54;20150;-75
2022/03/05 00:51:22;;;;;;;40.30;21.40;;;0.30;99.90;;;;;;2609887;54;20174;-75
2022/03/05 00:53:48;;;;;;;43.67;24.07;;;0.30;99.90;;;;;;2609436;54;20294;-75
2022/03/05 00:56:16;;;;;;;44.90;23.03;;;0.20;99.90;;;;;;2611215;54;20266;-74
2022/03/05 00:58:42;;;;;;;42.70;23.17;;;0.10;99.90;;;;;;2611398;47;21533;-74
2022/03/05 01:01:08;;;;;;;44.80;23.60;;;0.20;99.90;;;;;;2611275;54;20403;-75
2022/03/05 01:03:34;;;;;;;42.00;24.53;;;0.30;99.90;;;;;;2609971;54;20194;-75
2022/03/05 01:05:59;;;;;;;50.50;24.00;;;0.20;99.90;;;;;;2611720;54;20266;-74
2022/03/05 01:08:25;;;;;;;49.03;22.63;;;0.20;99.90;;;;;;2610500;54;20543;-76
2022/03/05 01:10:51;;;;;;;41.67;20.50;;;0.00;99.90;;;;;;2610980;54;20685;-76
2022/03/05 01:13:17;;;;;;;38.77;23.27;;;0.00;99.90;;;;;;2611379;54;20450;-76
2022/03/05 01:15:43;;;;;;;41.63;23.57;;;0.00;99.90;;;;;;2609632;47;20428;-74
2022/03/05 01:18:09;;;;;;;42.97;23.70;;;0.00;99.90;;;;;;2609804;47;20167;-75
2022/03/05 01:20:35;;;;;;;47.10;21.37;;;0.00;99.90;;;;;;2611788;54;20429;-75
2022/03/05 01:23:01;;;;;;;45.33;21.23;;;-0.10;99.90;;;;;;2610785;54;20504;-76
2022/03/05 01:25:27;;;;;;;59.00;27.27;;;-0.20;99.90;;;;;;2610087;47;20455;-74
2022/03/05 01:27:53;;;;;;;42.47;23.33;;;-0.20;99.90;;;;;;2609386;47;20555;-74
2022/03/05 01:30:19;;;;;;;41.17;23.40;;;-0.20;99.90;;;;;;2611559;54;20303;-77
2022/03/05 01:32:45;;;;;;;60.67;24.17;;;-0.30;99.90;;;;;;2611566;54;20694;-75
2022/03/05 01:35:11;;;;;;;45.20;23.63;;;-0.30;99.90;;;;;;2611987;47;20166;-76
2022/03/05 01:37:36;;;;;;;43.27;22.80;;;-0.30;99.90;;;;;;2610594;47;20450;-75
2022/03/05 01:40:04;;;;;;;41.93;20.97;;;-0.20;99.90;;;;;;2610551;47;20182;-76
2022/03/05 01:42:30;;;;;;;52.63;23.10;;;-0.20;99.90;;;;;;2612149;54;20887;-75
2022/03/05 01:44:56;;;;;;;54.43;22.27;;;-0.30;99.90;;;;;;2609991;54;20447;-76
2022/03/05 01:47:21;;;;;;;41.80;22.37;;;-0.30;99.90;;;;;;2611802;31;20691;-74
2022/03/05 01:49:47;;;;;;;51.67;23.00;;;-0.40;99.90;;;;;;2608917;54;20410;-75
2022/03/05 01:52:14;;;;;;;43.93;22.33;;;-0.40;99.90;;;;;;2609854;54;20161;-76
2022/03/05 01:54:40;;;;;;;44.90;23.03;;;-0.40;99.90;;;;;;2609739;31;20947;-75
2022/03/05 01:57:07;;;;;;;39.97;22.60;;;-0.50;99.90;;;;;;2609719;47;20411;-75
2022/03/05 01:59:34;;;;;;;44.57;19.07;;;-0.40;99.90;;;;;;2609794;31;20870;-74
2022/03/05 02:02:00;;;;;;;51.37;21.70;;;-0.30;99.90;;;;;;2607956;46;20419;-81
2022/03/05 02:04:27;;;;;;;39.40;20.17;;;-0.40;99.90;;;;;;2609549;54;20425;-81
2022/03/05 02:06:54;;;;;;;42.50;19.47;;;-0.30;99.90;;;;;;2609302;39;20855;-83
2022/03/05 02:09:21;;;;;;;42.50;21.70;;;-0.30;99.90;;;;;;2610864;39;21205;-83
2022/03/05 02:11:47;;;;;;;42.47;20.77;;;-0.40;99.90;;;;;;2608482;39;22097;-82
2022/03/05 02:14:17;;;;;;;38.27;22.40;;;-0.40;99.90;;;;;;2607454;54;20424;-83
2022/03/05 02:16:44;;;;;;;41.60;20.40;;;-0.20;99.90;;;;;;2609608;54;20399;-84
2022/03/05 02:19:10;;;;;;;37.50;19.17;;;-0.30;99.90;;;;;;2610756;54;20398;-83
2022/03/05 02:21:36;;;;;;;34.97;18.97;;;-0.40;99.90;;;;;;2611792;39;20691;-81
2022/03/05 02:24:03;;;;;;;40.67;19.60;;;-0.40;99.90;;;;;;2608103;54;20154;-80
2022/03/05 02:26:29;;;;;;;42.97;20.93;;;-0.50;99.90;;;;;;2609930;54;20443;-83
2022/03/05 02:28:55;;;;;;;42.37;20.17;;;-0.60;99.90;;;;;;2612768;54;20387;-83
2022/03/05 02:31:21;;;;;;;37.93;19.40;;;-0.60;99.90;;;;;;2610563;54;20411;-79
2022/03/05 02:33:52;;;;;;;39.97;19.20;;;-0.60;99.90;;;;;;2611182;54;20494;-78
2022/03/05 02:36:19;;;;;;;41.67;18.23;;;-0.50;99.90;;;;;;2611115;54;20390;-81
2022/03/05 02:38:45;;;;;;;33.73;16.53;;;-0.40;99.90;;;;;;2611691;39;20800;-82
2022/03/05 02:41:11;;;;;;;44.90;21.87;;;-0.30;99.90;;;;;;2609868;54;20598;-81
2022/03/05 02:43:37;;;;;;;41.20;18.70;;;-0.30;99.90;;;;;;2610603;47;20173;-82
2022/03/05 02:46:03;;;;;;;42.33;16.80;;;;;;;;;;2610601;39;20624;-82
2022/03/05 02:48:29;;;;;;;42.10;19.63;;;-0.30;99.90;;;;;;2609297;54;20451;-82
2022/03/05 02:50:55;;;;;;;42.87;20.27;;;-0.30;99.90;;;;;;2610021;54;20943;-84
2022/03/05 02:53:22;;;;;;;29.33;15.57;;;;;;;;;;2611017;54;20435;-80
2022/03/05 02:55:48;;;;;;;32.93;19.07;;;;;;;;;;2612611;54;20406;-83
2022/03/05 02:58:14;;;;;;;39.40;18.67;;;-0.40;99.90;;;;;;2610363;54;20410;-82
2022/03/05 03:00:40;;;;;;;47.10;21.93;;;-0.50;99.90;;;;;;2610514;54;20430;-83
2022/03/05 03:03:06;;;;;;;45.33;19.90;;;-0.50;99.90;;;;;;2612226;54;20185;-80
2022/03/05 03:05:32;;;;;;;40.87;18.83;;;-0.60;99.90;;;;;;2607721;54;20396;-79
2022/03/05 03:07:58;;;;;;;49.80;20.53;;;-0.60;99.90;;;;;;2610803;54;20155;-81
2022/03/05 03:10:24;;;;;;;46.63;21.83;;;-0.60;99.90;;;;;;2611107;54;20427;-82
2022/03/05 03:12:50;;;;;;;42.77;21.30;;;-0.60;99.90;;;;;;2611600;54;20429;-83
2022/03/05 03:15:17;;;;;;;44.33;22.70;;;-0.60;99.90;;;;;;2611780;54;20416;-82
2022/03/05 03:17:45;;;;;;;45.40;23.23;;;-0.50;99.90;;;;;;2607742;46;20167;-83
2022/03/05 03:20:13;;;;;;;42.53;21.63;;;-0.60;99.90;;;;;;2612033;54;20390;-79
2022/03/05 03:22:39;;;;;;;44.77;22.77;;;-0.60;99.90;;;;;;2611517;39;21019;-82
2022/03/05 03:25:06;;;;;;;47.37;23.60;;;-0.50;99.90;;;;;;2611003;54;20415;-82
2022/03/05 03:27:33;;;;;;;49.93;21.43;;;-0.60;99.90;;;;;;2609562;54;20406;-81
2022/03/05 03:29:59;;;;;;;43.20;21.60;;;-0.60;99.90;;;;;;2610840;39;20804;-82
2022/03/05 03:32:25;;;;;;;44.90;21.73;;;-0.50;99.90;;;;;;2611179;47;20410;-82
2022/03/05 03:34:51;;;;;;;40.47;19.20;;;-0.50;99.90;;;;;;2611777;54;21593;-82
2022/03/05 03:37:17;;;;;;;40.07;19.10;;;-0.50;99.90;;;;;;2611502;54;20163;-82
2022/03/05 03:39:43;;;;;;;38.33;19.67;;;-0.60;99.90;;;;;;2613577;54;20451;-81
2022/03/05 03:42:08;;;;;;;42.20;18.47;;;-0.50;99.90;;;;;;2612717;54;20158;-82
2022/03/05 03:44:34;;;;;;;38.30;21.73;;;-0.60;99.90;;;;;;2612210;54;20435;-80
2022/03/05 03:47:02;;;;;;;41.20;19.70;;;;;;;;;;2610594;47;20173;-80
2022/03/05 03:49:28;;;;;;;35.67;17.50;;;-0.50;99.90;;;;;;2612426;54;20403;-81
2022/03/05 03:51:54;;;;;;;41.30;17.73;;;-0.50;99.90;;;;;;2611499;47;20424;-81
2022/03/05 03:54:20;;;;;;;37.77;16.73;;;-0.60;99.90;;;;;;2611972;46;20294;-80
2022/03/05 03:56:46;;;;;;;43.70;19.63;;;-0.50;99.90;;;;;;2609911;46;20428;-81
2022/03/05 03:59:12;;;;;;;41.53;18.70;;;-0.50;99.90;;;;;;2609637;54;20209;-79
2022/03/05 04:01:39;;;;;;;38.50;19.77;;;-0.50;99.90;;;;;;2608790;54;20391;-82
2022/03/05 04:04:05;;;;;;;47.23;20.27;;;-0.50;99.90;;;;;;2611213;54;20398;-81
2022/03/05 04:08:41;;;;;;;43.57;23.30;;;-0.40;99.90;;;;;;2611224;54;20443;-80
2022/03/05 04:09:17;;;;;;;42.07;19.50;;;-0.40;99.90;;;;;;2611150;54;20531;-81
2022/03/05 04:11:44;;;;;;;41.23;22.10;;;;;;;;;;2612001;39;21398;-81
2022/03/05 04:14:10;;;;;;;41.50;18.43;;;;;;;;;;2612047;46;20418;-81
2022/03/05 04:16:36;;;;;;;33.90;16.80;;;;;;;;;;2612027;54;21015;-81
2022/03/05 04:19:02;;;;;;;37.53;20.57;;;-0.60;99.90;;;;;;2611511;47;20399;-80
2022/03/05 04:21:28;;;;;;;45.37;19.80;;;;;;;;;;2612985;46;21034;-81
2022/03/05 04:23:54;;;;;;;38.10;23.53;;;-0.70;99.90;;;;;;2610538;39;20656;-80
2022/03/05 04:26:20;;;;;;;44.97;23.50;;;-0.70;99.90;;;;;;2610429;47;21177;-81
2022/03/05 04:28:46;;;;;;;42.57;21.47;;;;;;;;;;2609483;54;20146;-81
2022/03/05 04:31:12;;;;;;;49.53;22.30;;;;;;;;;;2612925;46;20170;-82
2022/03/05 04:33:38;;;;;;;42.43;24.90;;;-0.80;99.90;;;;;;2611186;54;20489;-82
2022/03/05 04:36:04;;;;;;;52.70;23.03;;;-0.80;99.90;;;;;;2611746;54;20390;-78
2022/03/05 04:38:30;;;;;;;42.37;24.13;;;-0.80;99.90;;;;;;2611237;54;20729;-78
2022/03/05 04:40:56;;;;;;;49.20;21.93;;;-0.80;99.90;;;;;;2609916;54;20387;-82
2022/03/05 04:43:22;;;;;;;48.80;23.97;;;-0.80;99.90;;;;;;2611264;54;21029;-80
2022/03/05 04:45:48;;;;;;;58.60;25.20;;;-0.70;99.90;;;;;;2610668;54;20270;-81
2022/03/05 04:48:14;;;;;;;46.10;21.50;;;-0.80;99.90;;;;;;2612606;54;20379;-80
2022/03/05 04:50:40;;;;;;;38.07;20.77;;;;;;;;;;2610816;54;20383;-80
2022/03/05 04:53:06;;;;;;;52.07;22.57;;;-0.90;99.90;;;;;;2611706;54;20190;-79
2022/03/05 04:55:32;;;;;;;54.50;21.60;;;;;;;;;;2609153;54;20398;-77
2022/03/05 04:57:58;;;;;;;48.23;22.50;;;-0.80;99.90;;;;;;2611206;54;20162;-80
2022/03/05 05:00:24;;;;;;;50.67;26.70;;;-0.70;99.90;;;;;;2609852;47;22482;-81
2022/03/05 05:02:49;;;;;;;49.30;25.27;;;-0.80;99.90;;;;;;2611895;54;20151;-81
2022/03/05 05:05:15;;;;;;;52.97;28.20;;;-0.80;99.90;;;;;;2610822;47;20197;-81
2022/03/05 05:07:41;;;;;;;53.93;27.13;;;-0.80;99.90;;;;;;2613271;39;20609;-80
2022/03/05 05:10:07;;;;;;;51.20;26.27;;;-0.90;99.90;;;;;;2610142;54;20158;-80
2022/03/05 05:12:33;;;;;;;57.67;26.17;;;-0.80;99.90;;;;;;2609597;54;20203;-80
2022/03/05 05:14:59;;;;;;;49.43;24.60;;;-0.90;99.90;;;;;;2610449;54;20514;-79
2022/03/05 05:17:25;;;;;;;54.37;24.23;;;;;;;;;;2609472;54;20399;-81
2022/03/05 05:19:51;;;;;;;43.33;22.27;;;-0.90;99.90;;;;;;2610287;47;21271;-79
2022/03/05 05:22:17;;;;;;;50.07;22.93;;;-0.90;99.90;;;;;;2607553;54;20507;-80
2022/03/05 05:24:42;;;;;;;52.90;22.83;;;-0.90;99.90;;;;;;2611011;54;20250;-77
2022/03/05 05:27:08;;;;;;;50.10;23.60;;;-0.90;99.90;;;;;;2608142;54;20178;-80
2022/03/05 05:29:34;;;;;;;59.60;26.40;;;-1.00;99.90;;;;;;2609613;51;20203;-81
2022/03/05 05:32:00;;;;;;;53.50;26.27;;;;;;;;;;2608875;54;20147;-79
2022/03/05 05:34:26;;;;;;;63.30;28.10;;;;;;;;;;2610877;54;20155;-80
2022/03/05 05:36:52;;;;;;;45.30;28.07;;;-1.00;99.90;;;;;;2611458;39;20493;-78
2022/03/05 05:39:18;;;;;;;49.20;26.97;;;-1.00;99.90;;;;;;2610855;47;20417;-79
2022/03/05 05:41:44;;;;;;;53.37;27.03;;;-1.00;99.90;;;;;;2607747;47;20197;-78
2022/03/05 05:44:12;;;;;;;40.17;23.00;;;-1.20;99.90;;;;;;2609138;54;20998;-80
2022/03/05 05:46:37;;;;;;;40.40;22.83;;;-1.20;99.90;;;;;;2610500;54;20588;-80
2022/03/05 05:49:05;;;;;;;39.47;20.60;;;;;;;;;;2609659;54;20387;-80
2022/03/05 05:51:32;;;;;;;50.43;21.80;;;-1.10;99.90;;;;;;2608922;54;20529;-81
2022/03/05 05:54:00;;;;;;;53.03;20.40;;;-1.10;99.90;;;;;;2611213;47;20418;-81
2022/03/05 05:56:26;;;;;;;50.33;18.90;;;-1.10;99.90;;;;;;2611783;39;20798;-80
2022/03/05 05:58:52;;;;;;;40.77;19.23;;;-1.20;99.90;;;;;;2610435;54;20394;-79
2022/03/05 06:01:18;;;;;;;40.07;16.57;;;-1.20;99.90;;;;;;2610571;46;20423;-78
2022/03/05 06:03:45;;;;;;;36.27;18.33;;;-1.20;99.90;;;;;;2611024;54;20390;-82
2022/03/05 06:06:13;;;;;;;38.17;18.70;;;-1.20;99.90;;;;;;2611805;39;20530;-81
2022/03/05 06:08:40;;;;;;;40.57;17.47;;;-1.20;99.90;;;;;;2609649;46;20901;-81
2022/03/05 06:11:06;;;;;;;45.10;21.10;;;-1.20;99.90;;;;;;2611378;54;20496;-80
2022/03/05 06:13:32;;;;;;;42.30;16.20;;;-1.20;99.90;;;;;;2609740;54;20399;-78
2022/03/05 06:15:58;;;;;;;41.77;19.73;;;-1.20;99.90;;;;;;2609567;54;20446;-79
2022/03/05 06:18:23;;;;;;;45.10;18.93;;;-1.20;99.90;;;;;;2610877;54;20416;-79
2022/03/05 06:20:50;;;;;;;44.73;18.30;;;-1.20;99.90;;;;;;2609271;54;20185;-78
2022/03/05 06:23:18;;;;;;;43.93;19.07;;;-1.30;99.90;;;;;;2610030;54;20159;-78
2022/03/05 06:25:44;;;;;;;56.40;19.90;;;-1.20;99.90;;;;;;2609792;54;20458;-77
2022/03/05 06:28:10;;;;;;;53.07;21.57;;;-1.10;99.90;;;;;;2609172;54;20407;-77
2022/03/05 06:30:36;;;;;;;54.73;21.80;;;-1.20;99.90;;;;;;2610166;54;20461;-78
2022/03/05 06:33:02;;;;;;;47.03;20.73;;;-1.20;99.90;;;;;;2608754;47;20440;-77
2022/03/05 06:35:28;;;;;;;47.80;22.30;;;-1.10;99.90;;;;;;2611375;39;20767;-78
2022/03/05 06:37:54;;;;;;;40.97;21.23;;;-1.10;99.90;;;;;;2610839;54;20409;-76
2022/03/05 06:40:20;;;;;;;51.83;19.27;;;-1.10;99.90;;;;;;2610177;54;20412;-78
2022/03/05 06:42:45;;;;;;;36.90;18.50;;;-1.20;99.90;;;;;;2609746;54;20406;-77
2022/03/05 06:45:12;;;;;;;38.93;18.77;;;-1.10;99.90;;;;;;2607523;54;20170;-78
2022/03/05 06:47:39;;;;;;;41.00;20.37;;;-1.10;99.90;;;;;;2608097;54;20154;-78
2022/03/05 06:50:07;;;;;;;40.60;18.03;;;-1.00;99.90;;;;;;2608386;39;20830;-78
2022/03/05 06:52:32;;;;;;;49.63;21.67;;;-1.00;99.90;;;;;;2609722;54;20403;-78
2022/03/05 06:54:58;;;;;;;38.00;18.90;;;-0.90;99.90;;;;;;2608889;54;20992;-78
2022/03/05 06:57:26;;;;;;;60.30;22.30;;;-0.90;99.90;;;;;;2610472;54;20676;-78
2022/03/05 06:59:54;;;;;;;43.70;20.20;;;-0.90;99.90;;;;;;2609016;54;20419;-78
2022/03/05 07:02:21;;;;;;;44.63;19.87;;;-0.80;99.90;;;;;;2611903;54;20412;-79
2022/03/05 07:04:47;;;;;;;48.50;20.13;;;-0.70;99.90;;;;;;2610441;54;20399;-78
2022/03/05 07:07:13;;;;;;;44.57;21.07;;;-0.60;99.90;;;;;;2612238;54;21003;-78
2022/03/05 07:09:39;;;;;;;54.67;23.93;;;-0.50;99.90;;;;;;2610126;47;20411;-78
2022/03/05 07:12:05;;;;;;;40.50;19.80;;;-0.40;99.90;;;;;;2610015;47;20171;-77
2022/03/05 07:14:31;;;;;;;47.07;20.90;;;-0.20;99.90;;;;;;2611980;54;20406;-78
2022/03/05 07:16:57;;;;;;;44.33;21.13;;;;;;;;;;2612432;47;20399;-78
2022/03/05 07:19:24;;;;;;;35.03;18.07;;;;;;;;;;2609281;54;20419;-78
2022/03/05 07:21:50;;;;;;;38.70;19.80;;;1.70;99.90;;;;;;2610897;54;20418;-78
2022/03/05 07:24:17;;;;;;;40.63;20.20;;;2.00;99.90;;;;;;2609599;47;21278;-78
2022/03/05 07:26:43;;;;;;;40.17;19.17;;;;;;;;;;2609701;47;21087;-78
2022/03/05 07:29:09;;;;;;;37.07;18.27;;;2.20;99.90;;;;;;2610629;54;22437;-78
2022/03/05 07:31:34;;;;;;;42.60;22.53;;;2.70;99.90;;;;;;2608718;54;20415;-78
2022/03/05 07:34:01;;;;;;;38.50;19.93;;;;;;;;;;2607579;54;20407;-79
2022/03/05 07:36:27;;;;;;;41.53;20.20;;;;;;;;;;2607286;54;20150;-78
2022/03/05 07:38:53;;;;;;;40.50;17.10;;;;;;;;;;2607008;54;21426;-78
2022/03/05 07:41:19;;;;;;;35.80;19.20;;;;;;;;;;2607349;47;21291;-78
2022/03/05 07:43:45;;;;;;;34.27;17.37;;;;;;;;;;2607598;54;20418;-77
2022/03/05 07:46:14;;;;;;;38.37;20.10;;;4.40;66.00;;;;;;2606966;54;20578;-78
2022/03/05 07:48:42;;;;;;;37.90;20.10;;;4.40;65.30;;;;;;2606942;47;20427;-79
2022/03/05 07:51:08;;;;;;;36.53;19.43;;;4.40;59.30;;;;;;2608170;54;20444;-77
2022/03/05 07:53:34;;;;;;;34.97;20.30;;;4.70;53.60;;;;;;2607978;54;20578;-78
2022/03/05 07:56:00;;;;;;;37.23;19.60;;;4.70;51.30;;;;;;2609023;54;21749;-78
2022/03/05 07:58:26;;;;;;;40.67;17.80;;;5.30;55.50;;;;;;2627834;36;20946;-77
2022/03/05 08:00:52;;;;;;;31.80;19.47;;;;;;;;;;2608500;39;20523;-78
2022/03/05 08:03:18;;;;;;;32.37;16.27;;;;;;;;;;2606334;54;20170;-78
2022/03/05 08:05:45;;;;;;;32.33;16.77;;;;;;;;;;2606266;46;20477;-78
2022/03/05 08:08:11;;;;;;;27.30;15.60;;;;;;;;;;2609960;54;20431;-78
2022/03/05 08:10:37;;;;;;;34.93;20.20;;;6.20;26.90;;;;;;2612253;54;20403;-78
2022/03/05 08:13:03;;;;;;;38.87;19.23;;;;;;;;;;2611716;54;20428;-78
2022/03/05 08:15:29;;;;;;;38.33;22.17;;;;;;;;;;2604354;47;21164;-77
2022/03/05 08:17:57;;;;;;;39.00;19.43;;;;;;;;;;2607908;39;20998;-78
2022/03/05 08:20:24;;;;;;;34.30;18.33;;;6.90;33.10;;;;;;2607511;54;21043;-79
2022/03/05 08:22:51;;;;;;;32.60;18.53;;;;;;;;;;2606696;54;21270;-78
2022/03/05 08:25:17;;;;;;;35.40;21.80;;;;;;;;;;2607206;54;20961;-80
2022/03/05 08:27:43;;;;;;;39.37;20.77;;;;;;;;;;2605410;54;20404;-77
2022/03/05 08:30:11;;;;;;;33.00;19.20;;;7.20;16.80;;;;;;2608839;54;20515;-77
2022/03/05 08:32:36;;;;;;;35.50;20.10;;;7.20;17.80;;;;;;2607567;54;21231;-79
2022/03/05 08:35:04;;;;;;;32.43;19.60;;;7.30;18.70;;;;;;2607522;54;20492;-77
2022/03/05 08:37:30;;;;;;;36.00;22.23;;;7.50;16.20;;;;;;2608798;54;20272;-78
2022/03/05 08:39:56;;;;;;;40.87;22.37;;;7.70;16.90;;;;;;2628194;36;20471;-79
2022/03/05 08:42:22;;;;;;;40.17;21.33;;;7.80;15.30;;;;;;2609637;54;20159;-78
2022/03/05 08:44:47;;;;;;;31.60;19.73;;;8.00;14.30;;;;;;2608846;54;20444;-78
2022/03/05 08:47:13;;;;;;;32.40;19.40;;;7.70;14.80;;;;;;2606984;54;20421;-79
2022/03/05 08:49:39;;;;;;;36.03;21.40;;;7.80;14.80;;;;;;2606653;47;20716;-78
2022/03/05 08:52:05;;;;;;;34.60;21.67;;;8.00;13.90;;;;;;2606099;54;20445;-79
2022/03/05 08:54:31;;;;;;;34.50;20.13;;;8.20;13.90;;;;;;2607468;54;20735;-78
2022/03/05 08:56:57;;;;;;;33.90;20.00;;;8.30;12.30;;;;;;2607308;54;20417;-79
2022/03/05 08:59:23;;;;;;;36.60;21.17;;;8.30;11.10;;;;;;2608186;39;20803;-78
2022/03/05 09:01:49;;;;;;;36.20;19.67;;;8.50;10.70;;;;;;2608933;47;20281;-76
2022/03/05 09:04:15;;;;;;;35.07;20.67;;;8.60;10.70;;;;;;2605993;54;20199;-79
2022/03/05 09:06:41;;;;;;;34.77;20.67;;;9.10;9.00;;;;;;2606815;39;20766;-78
2022/03/05 09:09:08;;;;;;;31.00;19.30;;;9.40;6.50;;;;;;2607426;54;21658;-77
2022/03/05 09:11:37;;;;;;;33.37;22.20;;;9.10;8.10;;;;;;2607196;54;20952;-79
2022/03/05 09:14:07;;;;;;;33.90;20.30;;;9.30;6.10;;;;;;2606089;51;21067;-79
2022/03/05 09:16:36;;;;;;;31.30;23.17;;;9.70;5.30;;;;;;2604764;47;21571;-78
2022/03/05 09:19:03;;;;;;;33.10;20.87;;;9.90;4.00;;;;;;2606308;39;20916;-78
2022/03/05 09:21:29;;;;;;;29.07;20.93;;;10.30;2.80;;;;;;2609646;39;20847;-78
2022/03/05 09:23:55;;;;;;;31.30;20.97;;;10.60;1.20;;;;;;2608313;54;20400;-78
2022/03/05 09:26:20;;;;;;;33.37;21.80;;;10.80;1.00;;;;;;2608969;39;20623;-78
2022/03/05 09:28:46;;;;;;;28.87;19.53;;;10.80;1.00;;;;;;2609679;54;20543;-78
2022/03/05 09:31:12;;;;;;;35.30;22.13;;;10.80;1.00;;;;;;2607286;47;20178;-79
2022/03/05 09:33:38;;;;;;;32.43;21.30;;;11.20;1.00;;;;;;2607660;39;20745;-79
2022/03/05 09:36:04;;;;;;;35.30;22.77;;;10.90;1.00;;;;;;2609112;54;20266;-78
2022/03/05 09:38:30;;;;;;;34.60;22.40;;;;;;;;;;2608132;47;20212;-78
2022/03/05 09:40:57;;;;;;;36.60;21.97;;;;;;;;;;2608796;54;20416;-79
2022/03/05 09:43:23;;;;;;;41.27;29.90;;;;;;;;;;2610771;47;20438;-79
2022/03/05 09:45:50;;;;;;;30.77;20.53;;;;;;;;;;2611493;46;20424;-79
2022/03/05 09:48:17;;;;;;;34.70;28.37;;;;;;;;;;2610562;54;20422;-79
2022/03/05 09:50:44;;;;;;;31.33;21.10;;;;;;;;;;2611303;54;20431;-78
2022/03/05 09:53:10;;;;;;;42.70;26.17;;;;;;;;;;2610543;54;20416;-79
2022/03/05 09:55:36;;;;;;;30.00;21.47;;;11.80;1.00;;;;;;2611237;46;20908;-79
2022/03/05 09:58:02;;;;;;;29.43;22.43;;;11.90;1.00;;;;;;2612144;54;20427;-78
2022/03/05 10:00:30;;;;;;;31.93;23.50;;;11.80;1.00;;;;;;2611273;54;20446;-79
2022/03/05 10:02:56;;;;;;;35.60;22.30;;;11.80;1.00;;;;;;2610689;54;20399;-79
2022/03/05 10:05:26;;;;;;;28.23;21.10;;;12.00;1.00;;;;;;2609528;54;20427;-79
2022/03/05 10:08:01;;;;;;;34.83;22.00;;;11.80;1.00;;;;;;2611763;47;20956;-79
2022/03/05 10:10:28;;;;;;;30.17;21.20;;;11.80;1.00;;;;;;2609281;47;20525;-80
2022/03/05 10:12:54;;;;;;;29.13;21.97;;;12.00;1.00;;;;;;2610106;54;20411;-80
2022/03/05 10:15:21;;;;;;;29.37;22.90;;;11.80;1.00;;;;;;2610260;47;20519;-80
2022/03/05 10:17:48;;;;;;;28.97;21.50;;;11.10;1.00;;;;;;2608165;54;20431;-80
2022/03/05 10:20:14;;;;;;;27.73;20.53;;;11.10;1.00;;;;;;2610899;54;20404;-81
2022/03/05 10:22:55;;;;;;;27.03;20.03;;;11.80;1.00;;;;;;2610521;54;20526;-80
2022/03/05 10:25:48;;;;;;;24.17;19.53;;;12.20;1.00;;;;;;2611119;47;20440;-80
2022/03/05 10:28:20;;;;;;;28.10;21.87;;;12.70;1.00;;;;;;2610383;47;20437;-79
2022/03/05 10:30:48;;;;;;;24.90;20.17;;;12.90;1.00;;;;;;2612184;54;20399;-81
2022/03/05 10:33:29;;;;;;;22.87;19.33;;;13.50;1.00;;;;;;2615197;54;20431;-79
2022/03/05 10:35:57;;;;;;;21.80;18.27;;;13.40;1.00;;;;;;2615871;39;20839;-79
2022/03/05 10:38:41;;;;;;;20.20;18.07;;;13.90;1.00;;;;;;2615139;39;20930;-79
2022/03/05 10:41:06;;;;;;;22.30;18.30;;;14.10;1.00;;;;;;2614708;54;20499;-80
2022/03/05 10:43:32;;;;;;;23.90;17.90;;;13.90;1.00;;;;;;2615809;54;20411;-79
2022/03/05 10:45:58;;;;;;;21.47;16.30;;;13.50;1.00;;;;;;2614391;47;20422;-79
2022/03/05 10:48:30;;;;;;;18.03;15.83;;;13.60;1.00;;;;;;2615269;54;20162;-80
2022/03/05 10:50:57;;;;;;;21.70;17.30;;;14.00;1.00;;;;;;2616306;39;20544;-79
2022/03/05 10:53:47;;;;;;;20.50;18.30;;;14.00;1.00;;;;;;2615891;54;20411;-80
2022/03/05 10:56:32;;;;;;;22.10;18.70;;;13.80;1.00;;;;;;2615544;54;20418;-80
2022/03/05 10:59:04;;;;;;;19.13;17.27;;;13.30;1.00;;;;;;2616530;54;20398;-80
2022/03/05 11:01:31;;;;;;;20.07;17.40;;;13.90;1.00;;;;;;2613671;47;20415;-79
2022/03/05 11:03:58;;;;;;;24.43;18.80;;;14.70;1.00;;;;;;2615589;51;20535;-79
2022/03/05 11:06:24;;;;;;;22.43;16.27;;;14.20;1.00;;;;;;2616259;39;22104;-79
2022/03/05 11:08:50;;;;;;;20.70;17.30;;;13.70;1.00;;;;;;2613659;47;20419;-78
2022/03/05 11:11:17;;;;;;;20.20;17.87;;;13.30;1.00;;;;;;2613060;54;20387;-79
2022/03/05 11:13:44;;;;;;;23.67;18.30;;;13.90;1.00;;;;;;2608180;54;20483;-82
2022/03/05 11:16:11;;;;;;;19.47;17.40;;;14.00;1.00;;;;;;2610728;47;20453;-79
2022/03/05 11:18:39;;;;;;;19.00;17.10;;;13.80;1.00;;;;;;2609132;47;20434;-80
2022/03/05 11:21:05;;;;;;;22.90;18.87;;;13.80;1.00;;;;;;2608192;54;20416;-79
2022/03/05 11:23:33;;;;;;;22.67;17.43;;;13.50;1.00;;;;;;2608143;54;20407;-80
2022/03/05 11:26:00;;;;;;;22.50;17.93;;;13.20;1.00;;;;;;2610970;47;21061;-80
2022/03/05 11:28:35;;;;;;;21.90;17.20;;;13.50;1.00;;;;;;2611454;54;20463;-78
2022/03/05 11:31:19;;;;;;;23.27;16.70;;;13.60;1.00;;;;;;2608422;47;20422;-80
2022/03/05 11:33:47;;;;;;;21.13;17.30;;;14.00;1.00;;;;;;2610887;39;20821;-80
2022/03/05 11:36:27;;;;;;;20.17;17.27;;;14.10;1.00;;;;;;2610301;54;20512;-81
2022/03/05 11:39:19;;;;;;;24.73;21.60;;;13.80;1.00;;;;;;2610236;54;21003;-80
2022/03/05 11:41:51;;;;;;;19.43;17.33;;;14.50;1.00;;;;;;2609929;54;20407;-80
2022/03/05 11:44:20;;;;;;;18.67;16.17;;;14.20;1.00;;;;;;2611043;54;20404;-80
2022/03/05 11:46:45;;;;;;;19.73;17.67;;;14.90;1.00;;;;;;2610861;46;20449;-80
2022/03/05 11:49:13;;;;;;;21.17;18.10;;;14.80;1.00;;;;;;2607050;54;20415;-80
2022/03/05 11:51:58;;;;;;;26.17;18.30;;;14.50;1.00;;;;;;2610820;54;20411;-80
2022/03/05 11:54:26;;;;;;;18.80;17.00;;;14.50;1.00;;;;;;2608021;54;20411;-79
2022/03/05 11:57:03;;;;;;;20.50;16.27;;;14.80;1.00;;;;;;2609391;54;20516;-81
2022/03/05 11:59:40;;;;;;;20.40;17.87;;;15.10;1.00;;;;;;2608053;54;20991;-80
2022/03/05 12:02:06;;;;;;;20.30;17.00;;;15.40;1.00;;;;;;2608513;47;21006;-80
2022/03/05 12:04:33;;;;;;;18.67;16.77;;;15.10;1.00;;;;;;2608732;54;20434;-80
2022/03/05 12:07:04;;;;;;;18.63;16.70;;;15.10;1.00;;;;;;2609661;54;20408;-81
2022/03/05 12:09:36;;;;;;;20.03;17.90;;;15.10;1.00;;;;;;2609782;47;20419;-82
2022/03/05 12:12:12;;;;;;;19.50;17.50;;;15.20;1.00;;;;;;2611072;54;20561;-80
2022/03/05 12:14:59;;;;;;;18.20;16.40;;;16.00;1.00;;;;;;2610453;54;20421;-79
2022/03/05 12:17:30;;;;;;;19.40;17.33;;;16.20;1.00;;;;;;2612392;54;20418;-81
2022/03/05 12:19:56;;;;;;;20.70;17.27;;;16.40;1.00;;;;;;2611080;47;20434;-80
2022/03/05 12:22:22;;;;;;;18.97;17.17;;;15.60;1.00;;;;;;2611418;31;20828;-80
2022/03/05 12:24:48;;;;;;;19.07;17.10;;;14.90;1.00;;;;;;2610492;47;20415;-81
2022/03/05 12:27:16;;;;;;;20.93;15.93;;;;;;;;;;2610002;54;20182;-79
2022/03/05 12:29:50;;;;;;;21.13;17.47;;;15.00;1.00;;;;;;2609451;47;20223;-78
2022/03/05 12:32:16;;;;;;;20.33;17.43;;;15.00;1.00;;;;;;2611102;54;20416;-81
2022/03/05 12:34:42;;;;;;;20.70;18.00;;;15.10;1.00;;;;;;2611042;31;20925;-82
2022/03/05 12:37:08;;;;;;;19.50;17.50;;;14.60;1.00;;;;;;2610262;54;20435;-80
2022/03/05 12:39:45;;;;;;;18.50;16.70;;;14.20;1.00;;;;;;2611020;54;20438;-81
2022/03/05 12:42:12;;;;;;;19.43;17.07;;;13.50;1.00;;;;;;2611124;47;20434;-81
2022/03/05 12:44:39;;;;;;;23.53;17.83;;;;;;;;;;2609655;47;20416;-84